^^
Meteo Knjazevac Station Historical Data
Daily Summary for July 6, 2021 Units:  English    Metric   Both
Daily Weekly Monthly Yearly Custom
  High: Low: Average:
Temperature: 55.6 °F 48.6 °F 51.5 °F
Dew Point: 50.2 °F 46.8 °F 48.2 °F
Humidity: 94% 81% 89%
Wind Speed: 5mph 0mph 1.5mph
Wind Gust: 6mph - -
Wind- - West
Pressure: 30.14 in 30.11 in -
Precipitation: 0.00 in    
Historical Graphs
 
 
Tabular Data for July 6, 2021
Time Temperature Dew Point Pressure Wind Wind Speed Wind Gust Humidity Rainfall Rate (Hourly) solar Conditions
00:00 55.6 °F 50.2 °F 30.14 in WNW 1 mph 5 mph 82% 0.00 in 0 W/m2
00:10 55.6 °F 49.8 °F 30.14 in Calm   2 mph 81% 0.00 in 0 W/m2
00:20 54.9 °F 49.8 °F 30.14 in Calm   2 mph 83% 0.00 in 0 W/m2
00:30 54.5 °F 49.8 °F 30.14 in WNW 1 mph 2 mph 84% 0.00 in 0 W/m2
00:40 54 °F 49.2 °F 30.14 in West 1 mph 2 mph 84% 0.00 in 0 W/m2
00:50 53.6 °F 49.2 °F 30.14 in West 1 mph 2 mph 85% 0.00 in 0 W/m2
01:00 53.2 °F 48.8 °F 30.14 in West 1 mph 2 mph 85% 0.00 in 0 W/m2
01:10 53.1 °F 49 °F 30.14 in West 1 mph 3 mph 86% 0.00 in 0 W/m2
01:20 52.7 °F 48.6 °F 30.14 in Calm   2 mph 86% 0.00 in 0 W/m2
01:30 52.5 °F 48.5 °F 30.14 in Calm   2 mph 86% 0.00 in 0 W/m2
01:40 52.3 °F 48.8 °F 30.14 in WNW 1 mph 2 mph 88% 0.00 in 0 W/m2
01:50 52.2 °F 48.7 °F 30.14 in WNW 3 mph 5 mph 88% 0.00 in 0 W/m2
02:00 52.2 °F 48.7 °F 30.14 in WNW 2 mph 5 mph 88% 0.00 in 0 W/m2
02:10 51.8 °F 48.4 °F 30.13 in West 2 mph 5 mph 88% 0.00 in 0 W/m2
02:20 51.6 °F 48.5 °F 30.13 in West 2 mph 4 mph 89% 0.00 in 0 W/m2
02:30 51.3 °F 48.2 °F 30.13 in West 2 mph 3 mph 89% 0.00 in 0 W/m2
02:40 51.1 °F 48 °F 30.13 in WNW 2 mph 4 mph 89% 0.00 in 0 W/m2
02:50 51 °F 47.9 °F 30.13 in WSW 2 mph 3 mph 89% 0.00 in 0 W/m2
03:00 50.5 °F 47.7 °F 30.13 in West 2 mph 4 mph 90% 0.00 in 0 W/m2
03:10 50.5 °F 47.7 °F 30.13 in WNW 2 mph 3 mph 90% 0.00 in 0 W/m2
03:20 50.2 °F 47.7 °F 30.12 in West 1 mph 6 mph 91% 0.00 in 0 W/m2
03:30 50.3 °F 47.7 °F 30.12 in West 2 mph 3 mph 91% 0.00 in 0 W/m2
03:40 50.2 °F 47.7 °F 30.12 in WNW 1 mph 3 mph 91% 0.00 in 0 W/m2
03:50 49.9 °F 47.4 °F 30.12 in WSW 5 mph 5 mph 91% 0.00 in 0 W/m2
04:00 49.6 °F 47.1 °F 30.12 in West 3 mph 5 mph 91% 0.00 in 0 W/m2
04:10 49.3 °F 46.8 °F 30.12 in WSW 2 mph 5 mph 91% 0.00 in 0 W/m2
04:20 49.1 °F 47.2 °F 30.11 in West 2 mph 5 mph 93% 0.00 in 0 W/m2
04:30 48.9 °F 47 °F 30.11 in WSW 1 mph 3 mph 93% 0.00 in 0 W/m2
04:40 48.9 °F 47 °F 30.12 in West 2 mph 4 mph 93% 0.00 in 0 W/m2
04:50 48.6 °F 47 °F 30.12 in West 1 mph 5 mph 94% 0.00 in 3 W/m2
05:00 48.7 °F 47.1 °F 30.12 in West 1 mph 3 mph 94% 0.00 in 7 W/m2
Knjazevac, Serbia
Compliments of Weather Underground - 2 mb